Time;durP1;ratioP1;P1;durP2;ratioP2;P2;SDS_P1;SDS_P2;PMS_P1;PMS_P2;Temp;Humidity;BMP_temperature;BMP_pressure;BME280_temperature;BME280_humidity;BME280_pressure;Samples;Min_cycle;Max_cycle;Signal;HPM_P1;HPM_P2
2022/01/31 00:01:48;;;;;;;10.95;6.78;;;1.70;84.40;;;;;;5054059;28;20241;-57
2022/01/31 00:04:15;;;;;;;16.17;6.80;;;1.80;84.30;;;;;;5054269;28;20244;-56
2022/01/31 00:06:47;;;;;;;12.13;6.45;;;1.70;84.40;;;;;;5054259;28;20292;-56
2022/01/31 00:09:16;;;;;;;9.85;6.57;;;1.80;84.30;;;;;;5054309;28;20205;-57
2022/01/31 00:11:45;;;;;;;12.90;6.75;;;2.00;83.90;;;;;;5053824;28;20220;-57
2022/01/31 00:14:27;;;;;;;11.00;6.70;;;2.10;83.30;;;;;;5052801;28;20198;-57
2022/01/31 00:16:55;;;;;;;10.20;6.47;;;2.10;83.10;;;;;;5053988;28;20208;-57
2022/01/31 00:19:22;;;;;;;8.90;6.10;;;2.20;82.70;;;;;;5053930;28;20244;-57
2022/01/31 00:21:49;;;;;;;9.73;5.95;;;2.20;82.80;;;;;;5053696;28;20717;-56
2022/01/31 00:24:16;;;;;;;10.15;5.85;;;2.10;82.90;;;;;;5053888;28;20609;-56
2022/01/31 00:26:43;;;;;;;14.23;7.15;;;2.10;83.00;;;;;;5054004;28;20208;-57
2022/01/31 00:29:10;;;;;;;15.13;6.35;;;2.20;82.90;;;;;;5052328;28;20543;-58
2022/01/31 00:31:37;;;;;;;10.25;5.65;;;2.20;82.80;;;;;;5053792;28;20205;-55
2022/01/31 00:34:05;;;;;;;12.10;6.75;;;2.20;82.70;;;;;;5053713;28;20201;-55
2022/01/31 00:36:32;;;;;;;13.30;6.60;;;2.20;82.70;;;;;;5053505;28;20226;-57
2022/01/31 00:38:59;;;;;;;8.48;6.18;;;2.20;82.70;;;;;;5053655;28;20296;-56
2022/01/31 00:41:26;;;;;;;13.80;6.47;;;2.10;83.20;;;;;;5053577;28;20296;-57
2022/01/31 00:43:59;;;;;;;9.85;6.80;;;2.10;83.20;;;;;;5053474;28;20289;-57
2022/01/31 00:46:31;;;;;;;11.88;6.28;;;2.10;83.40;;;;;;5052976;28;20336;-56
2022/01/31 00:48:58;;;;;;;13.02;6.47;;;2.10;83.60;;;;;;5053736;28;20210;-55
2022/01/31 00:51:26;;;;;;;7.55;5.88;;;1.90;83.80;;;;;;5053213;28;20229;-58
2022/01/31 00:53:53;;;;;;;12.20;6.53;;;1.80;84.30;;;;;;5053363;28;20259;-57
2022/01/31 00:56:20;;;;;;;11.63;6.18;;;1.80;84.70;;;;;;5053508;28;20621;-57
2022/01/31 00:58:46;;;;;;;12.07;6.57;;;1.80;84.70;;;;;;5053400;28;20212;-56
2022/01/31 01:01:13;;;;;;;18.02;6.70;;;1.80;84.80;;;;;;5051763;28;20323;-57
2022/01/31 01:03:40;;;;;;;13.52;6.82;;;1.80;84.90;;;;;;5053157;28;20229;-57
2022/01/31 01:06:07;;;;;;;12.70;6.90;;;1.80;84.70;;;;;;5052927;28;20236;-56
2022/01/31 01:08:35;;;;;;;10.60;7.25;;;1.70;84.90;;;;;;5053187;28;20296;-57
2022/01/31 01:11:02;;;;;;;8.57;6.30;;;1.80;85.10;;;;;;5053160;28;20279;-58
2022/01/31 01:13:29;;;;;;;13.77;6.47;;;1.80;84.90;;;;;;5053028;28;20304;-56
2022/01/31 01:15:55;;;;;;;14.15;7.05;;;1.80;85.10;;;;;;5051687;28;20256;-58
2022/01/31 01:18:22;;;;;;;8.75;6.78;;;1.80;85.10;;;;;;5052953;28;20674;-58
2022/01/31 01:20:49;;;;;;;9.70;6.28;;;1.70;85.20;;;;;;5053097;28;20207;-57
2022/01/31 01:23:16;;;;;;;13.75;6.88;;;1.70;85.60;;;;;;5052131;28;20239;-57
2022/01/31 01:25:46;;;;;;;11.70;6.50;;;1.70;85.70;;;;;;5052935;28;20201;-58
2022/01/31 01:28:13;;;;;;;10.20;6.35;;;1.60;85.90;;;;;;5052753;28;20240;-58
2022/01/31 01:30:40;;;;;;;12.80;6.45;;;1.70;85.80;;;;;;5051547;28;20205;-57
2022/01/31 01:33:11;;;;;;;15.68;6.68;;;1.70;85.70;;;;;;5052895;28;20293;-58
2022/01/31 01:35:38;;;;;;;11.10;6.70;;;1.70;85.60;;;;;;5052780;28;20719;-58
2022/01/31 01:38:07;;;;;;;9.68;6.13;;;1.70;85.70;;;;;;5052562;28;20561;-58
2022/01/31 01:40:35;;;;;;;10.75;6.35;;;1.70;85.70;;;;;;5052694;28;20205;-58
2022/01/31 01:43:04;;;;;;;10.57;5.40;;;1.70;85.80;;;;;;5052627;28;20233;-56
2022/01/31 01:45:31;;;;;;;8.63;5.72;;;1.70;85.80;;;;;;5051381;28;20220;-58
2022/01/31 01:47:58;;;;;;;9.23;6.80;;;1.80;85.90;;;;;;5052682;28;20201;-58
2022/01/31 01:50:25;;;;;;;14.70;6.40;;;1.80;85.60;;;;;;5052635;28;20229;-57
2022/01/31 01:52:52;;;;;;;9.32;6.15;;;1.80;85.40;;;;;;5052725;28;20205;-58
2022/01/31 01:55:20;;;;;;;14.63;6.28;;;1.90;85.30;;;;;;5052556;28;20205;-58
2022/01/31 01:57:47;;;;;;;12.45;6.05;;;1.80;85.40;;;;;;5052634;28;20213;-57
2022/01/31 02:00:23;;;;;;;11.23;6.10;;;1.70;85.70;;;;;;5051053;28;20291;-57
2022/01/31 02:02:50;;;;;;;13.05;6.68;;;1.80;85.90;;;;;;5052457;28;20244;-57
2022/01/31 02:05:17;;;;;;;9.88;5.35;;;1.80;85.70;;;;;;5052485;28;20296;-57
2022/01/31 02:07:45;;;;;;;8.70;6.22;;;1.80;85.60;;;;;;5052267;28;20248;-57
2022/01/31 02:10:12;;;;;;;12.57;6.15;;;1.90;85.40;;;;;;5052383;28;20201;-58
2022/01/31 02:12:40;;;;;;;10.95;6.60;;;1.90;85.10;;;;;;5052512;28;20228;-58
2022/01/31 02:15:08;;;;;;;11.52;7.00;;;1.90;85.10;;;;;;5051046;28;20280;-57
2022/01/31 02:17:36;;;;;;;14.80;7.15;;;1.90;85.10;;;;;;5052565;28;20223;-58
2022/01/31 02:20:05;;;;;;;13.63;7.03;;;2.00;85.10;;;;;;5052482;28;20206;-58
2022/01/31 02:22:33;;;;;;;11.05;6.68;;;2.00;84.90;;;;;;5051999;28;20230;-57
2022/01/31 02:25:01;;;;;;;13.10;6.82;;;2.00;84.80;;;;;;5052351;28;20207;-57
2022/01/31 02:27:29;;;;;;;10.70;6.22;;;2.00;84.60;;;;;;5052472;28;20215;-58
2022/01/31 02:29:56;;;;;;;11.45;6.50;;;2.00;84.80;;;;;;5050968;28;20216;-57
2022/01/31 02:32:24;;;;;;;10.27;6.60;;;2.00;84.70;;;;;;5052160;28;20202;-57
2022/01/31 02:34:51;;;;;;;12.13;6.55;;;2.00;84.80;;;;;;5053297;28;20221;-57
2022/01/31 02:37:19;;;;;;;13.40;5.68;;;2.00;85.00;;;;;;5055788;28;20202;-58
2022/01/31 02:39:47;;;;;;;12.23;7.43;;;2.00;84.70;;;;;;5055911;28;20211;-58
2022/01/31 02:42:15;;;;;;;13.90;6.15;;;2.00;84.70;;;;;;5055836;28;20236;-58
2022/01/31 02:44:43;;;;;;;12.18;7.00;;;2.10;84.70;;;;;;5054608;28;20204;-57
2022/01/31 02:47:15;;;;;;;11.20;5.95;;;2.10;84.30;;;;;;5055806;28;20730;-58
2022/01/31 02:49:48;;;;;;;17.45;6.55;;;2.10;84.30;;;;;;5055689;28;20657;-58
2022/01/31 02:52:17;;;;;;;11.98;6.95;;;2.00;84.50;;;;;;5055551;28;20292;-57
2022/01/31 02:54:45;;;;;;;11.95;6.75;;;1.90;85.10;;;;;;5055677;28;20198;-56
2022/01/31 02:57:13;;;;;;;11.35;6.90;;;1.80;85.40;;;;;;5055742;28;20209;-57
2022/01/31 02:59:40;;;;;;;11.25;6.25;;;1.80;85.50;;;;;;5054224;28;20297;-58
2022/01/31 03:02:08;;;;;;;12.70;6.78;;;1.70;85.60;;;;;;5055206;28;20332;-57
2022/01/31 03:04:34;;;;;;;7.63;6.28;;;1.70;85.60;;;;;;5055417;28;20229;-57
2022/01/31 03:07:01;;;;;;;12.38;7.28;;;1.70;85.80;;;;;;5055303;28;20239;-57
2022/01/31 03:09:28;;;;;;;9.77;5.88;;;1.70;86.00;;;;;;5055414;28;20219;-58
2022/01/31 03:11:55;;;;;;;10.23;6.28;;;1.70;85.90;;;;;;5055355;28;20290;-58
2022/01/31 03:14:24;;;;;;;11.27;7.07;;;1.80;85.70;;;;;;5053989;28;20271;-57
2022/01/31 03:16:51;;;;;;;8.50;6.30;;;1.80;85.50;;;;;;5055065;28;20568;-58
2022/01/31 03:19:19;;;;;;;10.50;6.60;;;1.80;85.60;;;;;;5055215;28;20292;-57
2022/01/31 03:21:46;;;;;;;11.57;6.60;;;1.70;85.50;;;;;;5054992;28;20304;-57
2022/01/31 03:24:14;;;;;;;12.05;7.32;;;1.70;85.80;;;;;;5055157;28;20268;-58
2022/01/31 03:26:41;;;;;;;13.68;6.88;;;1.70;85.70;;;;;;5055023;28;20288;-57
2022/01/31 03:29:09;;;;;;;7.50;6.60;;;1.70;85.50;;;;;;5053505;28;20201;-56
2022/01/31 03:31:37;;;;;;;7.63;5.93;;;1.80;85.40;;;;;;5055008;28;20206;-57
2022/01/31 03:34:04;;;;;;;9.88;6.47;;;1.90;85.30;;;;;;5054829;28;20575;-58
2022/01/31 03:36:31;;;;;;;12.05;6.57;;;1.90;85.10;;;;;;5054726;28;20216;-56
2022/01/31 03:38:58;;;;;;;9.48;6.22;;;2.00;84.60;;;;;;5054834;28;20225;-58
2022/01/31 03:41:25;;;;;;;14.32;6.65;;;1.90;84.60;;;;;;5054671;28;20651;-58
2022/01/31 03:43:52;;;;;;;15.50;7.03;;;1.90;84.80;;;;;;5054570;28;20256;-57
2022/01/31 03:46:19;;;;;;;8.00;6.80;;;1.80;84.80;;;;;;5052598;28;20660;-57
2022/01/31 03:48:48;;;;;;;9.25;7.10;;;1.90;84.80;;;;;;5054611;28;20723;-58
2022/01/31 03:51:15;;;;;;;15.85;7.30;;;1.90;84.80;;;;;;5054667;28;20684;-57
2022/01/31 03:53:42;;;;;;;8.90;6.80;;;1.90;84.60;;;;;;5054395;28;20296;-57
2022/01/31 03:56:09;;;;;;;12.50;6.53;;;1.90;84.70;;;;;;5054608;28;20202;-57
2022/01/31 03:58:36;;;;;;;6.57;5.85;;;1.90;84.70;;;;;;5054369;28;20310;-58
2022/01/31 04:01:03;;;;;;;13.52;7.95;;;1.90;84.90;;;;;;5052953;28;20272;-57
2022/01/31 04:03:30;;;;;;;10.75;7.47;;;2.00;84.80;;;;;;5054226;28;20312;-57
2022/01/31 04:05:58;;;;;;;7.13;5.80;;;2.00;84.90;;;;;;5054307;28;20255;-58
2022/01/31 04:08:25;;;;;;;18.55;7.00;;;2.10;84.80;;;;;;5054265;28;20212;-57
2022/01/31 04:10:52;;;;;;;9.10;6.60;;;2.00;84.40;;;;;;5054138;28;20605;-58
2022/01/31 04:13:19;;;;;;;9.75;7.30;;;2.10;84.40;;;;;;5054142;28;20663;-58
2022/01/31 04:15:46;;;;;;;8.70;6.75;;;1.90;84.60;;;;;;5052884;28;20633;-57
2022/01/31 04:18:13;;;;;;;8.90;6.78;;;2.00;84.80;;;;;;5054047;28;20248;-57
2022/01/31 04:20:39;;;;;;;7.00;6.32;;;2.00;84.70;;;;;;5054123;28;20237;-57
2022/01/31 04:23:11;;;;;;;7.65;6.38;;;2.10;84.60;;;;;;5053766;28;20691;-57
2022/01/31 04:25:46;;;;;;;7.43;6.30;;;2.20;84.00;;;;;;5053886;28;20679;-58
2022/01/31 04:28:21;;;;;;;8.40;6.32;;;2.20;84.00;;;;;;5053981;28;20263;-57
2022/01/31 04:30:57;;;;;;;7.40;6.70;;;2.10;84.20;;;;;;5052573;28;20212;-56
2022/01/31 04:33:25;;;;;;;7.57;6.50;;;2.10;84.40;;;;;;5053719;28;20221;-58
2022/01/31 04:35:52;;;;;;;8.70;6.07;;;2.20;84.20;;;;;;5053629;28;20206;-58
2022/01/31 04:38:21;;;;;;;9.82;7.30;;;2.20;83.90;;;;;;5053479;28;20713;-57
2022/01/31 04:40:48;;;;;;;8.88;6.60;;;2.30;84.00;;;;;;5053818;28;20292;-56
2022/01/31 04:43:15;;;;;;;10.27;6.80;;;2.40;83.90;;;;;;5053442;28;20762;-56
2022/01/31 04:45:47;;;;;;;8.52;7.03;;;2.50;83.70;;;;;;5052343;28;20241;-56
2022/01/31 04:48:15;;;;;;;8.07;7.07;;;2.50;83.40;;;;;;5053551;28;20252;-57
2022/01/31 04:50:42;;;;;;;9.23;7.15;;;2.40;83.40;;;;;;5053327;28;20208;-56
2022/01/31 04:53:09;;;;;;;8.63;6.60;;;2.30;83.80;;;;;;5053262;28;20292;-58
2022/01/31 04:55:37;;;;;;;10.73;6.80;;;2.30;84.00;;;;;;5053409;28;20572;-56
2022/01/31 04:58:05;;;;;;;14.98;6.97;;;2.30;84.00;;;;;;5053387;28;20727;-56
2022/01/31 05:00:31;;;;;;;10.38;6.50;;;2.30;84.00;;;;;;5051842;28;20270;-56
2022/01/31 05:02:58;;;;;;;9.50;6.28;;;2.40;84.00;;;;;;5053013;28;20560;-56
2022/01/31 05:05:25;;;;;;;7.97;7.00;;;2.30;84.30;;;;;;5053054;28;20296;-58
2022/01/31 05:07:54;;;;;;;8.68;7.15;;;2.30;84.70;;;;;;5053067;28;20225;-56
2022/01/31 05:10:22;;;;;;;8.27;6.90;;;2.30;84.90;;;;;;5053107;28;21312;-56
2022/01/31 05:12:50;;;;;;;11.10;7.22;;;2.30;84.80;;;;;;5053023;28;20201;-56
2022/01/31 05:15:17;;;;;;;8.00;7.20;;;2.30;85.20;;;;;;5051792;28;20297;-56
2022/01/31 05:17:44;;;;;;;11.15;7.20;;;2.30;85.00;;;;;;5053021;28;20293;-56
2022/01/31 05:20:11;;;;;;;9.80;7.10;;;2.20;85.30;;;;;;5052997;28;20215;-58
2022/01/31 05:22:38;;;;;;;10.10;7.13;;;2.20;85.70;;;;;;5052895;28;20674;-57
2022/01/31 05:25:06;;;;;;;9.05;7.22;;;2.30;85.60;;;;;;5052884;28;20232;-58
2022/01/31 05:27:33;;;;;;;10.25;6.00;;;2.30;85.40;;;;;;5052838;28;20216;-57
2022/01/31 05:30:01;;;;;;;8.63;6.78;;;2.30;85.20;;;;;;5051523;28;20205;-58
2022/01/31 05:32:28;;;;;;;11.07;6.50;;;2.40;85.20;;;;;;5052778;28;20648;-56
2022/01/31 05:34:55;;;;;;;8.85;6.32;;;2.40;84.90;;;;;;5052902;28;20328;-57
2022/01/31 05:37:22;;;;;;;9.32;6.35;;;2.40;84.80;;;;;;5052578;28;20247;-56
2022/01/31 05:39:48;;;;;;;9.35;6.50;;;2.50;84.80;;;;;;5052706;28;20292;-56
2022/01/31 05:42:15;;;;;;;7.35;6.32;;;2.60;84.70;;;;;;5052684;28;20678;-60
2022/01/31 05:44:46;;;;;;;7.72;6.35;;;2.60;84.20;;;;;;5051300;28;20327;-57
2022/01/31 05:47:15;;;;;;;8.00;6.20;;;2.60;84.00;;;;;;5052705;28;20224;-58
2022/01/31 05:49:42;;;;;;;9.98;7.45;;;2.70;84.10;;;;;;5052597;28;20301;-57
2022/01/31 05:52:09;;;;;;;8.50;6.53;;;2.70;83.50;;;;;;5052502;28;20229;-57
2022/01/31 05:54:38;;;;;;;9.85;5.93;;;2.80;83.20;;;;;;5052669;28;20656;-58
2022/01/31 05:57:06;;;;;;;6.95;6.32;;;2.90;83.00;;;;;;5052671;28;20236;-59
2022/01/31 05:59:33;;;;;;;10.82;6.53;;;2.90;82.60;;;;;;5051233;28;20287;-58
2022/01/31 06:02:01;;;;;;;11.25;6.00;;;3.00;82.50;;;;;;5052336;28;20745;-57
2022/01/31 06:04:29;;;;;;;6.70;5.95;;;3.00;82.10;;;;;;5052415;28;20233;-57
2022/01/31 06:06:56;;;;;;;8.13;6.65;;;3.00;81.80;;;;;;5052369;28;20205;-56
2022/01/31 06:09:25;;;;;;;10.65;6.22;;;3.00;82.00;;;;;;5052921;28;20211;-59
2022/01/31 06:11:52;;;;;;;13.80;6.03;;;3.00;82.40;;;;;;5056527;28;20284;-58
2022/01/31 06:14:19;;;;;;;9.00;7.18;;;3.00;82.40;;;;;;5055062;28;20236;-57
2022/01/31 06:16:46;;;;;;;9.15;6.97;;;3.00;82.50;;;;;;5056430;28;20232;-59
2022/01/31 06:19:13;;;;;;;9.45;7.07;;;3.00;82.50;;;;;;5056310;28;20284;-57
2022/01/31 06:21:41;;;;;;;9.40;6.93;;;3.00;82.60;;;;;;5056269;28;20212;-58
2022/01/31 06:24:10;;;;;;;7.68;6.80;;;3.00;83.10;;;;;;5055873;28;20702;-56
2022/01/31 06:26:37;;;;;;;9.30;7.47;;;2.90;83.90;;;;;;5055907;28;20570;-59
2022/01/31 06:29:04;;;;;;;7.88;5.85;;;2.70;85.40;;;;;;5055256;28;20209;-58
2022/01/31 06:31:31;;;;;;;8.52;6.55;;;2.50;86.30;;;;;;5056038;28;20209;-59
2022/01/31 06:33:59;;;;;;;11.65;6.97;;;2.50;87.20;;;;;;5056066;28;20312;-59
2022/01/31 06:36:26;;;;;;;9.02;7.55;;;2.40;87.40;;;;;;5055881;28;20202;-60
2022/01/31 06:38:54;;;;;;;11.48;6.70;;;2.30;88.20;;;;;;5055683;28;20202;-61
2022/01/31 06:41:23;;;;;;;8.80;7.78;;;2.20;89.10;;;;;;5055908;28;20291;-61
2022/01/31 06:43:50;;;;;;;12.75;6.95;;;2.20;89.40;;;;;;5055720;28;20225;-61
2022/01/31 06:46:18;;;;;;;14.18;6.70;;;2.20;90.00;;;;;;5054532;28;20207;-60
2022/01/31 06:48:45;;;;;;;8.95;5.82;;;2.20;90.60;;;;;;5055666;28;20577;-62
2022/01/31 06:51:12;;;;;;;7.97;5.82;;;2.20;90.70;;;;;;5055681;28;20208;-61
2022/01/31 06:53:40;;;;;;;12.15;7.10;;;2.20;90.80;;;;;;5055426;28;20803;-60
2022/01/31 06:56:08;;;;;;;11.40;6.32;;;2.10;91.30;;;;;;5055600;28;20652;-62
2022/01/31 06:58:35;;;;;;;7.65;6.40;;;2.10;91.60;;;;;;5055669;28;20296;-61
2022/01/31 07:01:02;;;;;;;12.38;6.50;;;2.10;92.00;;;;;;5054195;28;20234;-59
2022/01/31 07:03:29;;;;;;;8.75;5.85;;;2.10;92.10;;;;;;5055392;28;20300;-60
2022/01/31 07:05:56;;;;;;;7.88;6.13;;;2.10;91.90;;;;;;5055536;28;20351;-60
2022/01/31 07:08:23;;;;;;;7.25;5.05;;;2.10;92.20;;;;;;5055053;28;20208;-61
2022/01/31 07:10:52;;;;;;;8.30;5.18;;;2.10;92.20;;;;;;5055082;28;20209;-61
2022/01/31 07:13:35;;;;;;;8.52;6.05;;;2.10;92.60;;;;;;5055285;28;20680;-62
2022/01/31 07:16:02;;;;;;;8.30;6.35;;;2.10;92.70;;;;;;5053894;28;20293;-62
2022/01/31 07:18:30;;;;;;;12.80;7.57;;;2.10;92.90;;;;;;5055110;28;20288;-63
2022/01/31 07:20:57;;;;;;;10.32;5.78;;;2.20;93.00;;;;;;5054178;28;20201;-61
2022/01/31 07:23:27;;;;;;;18.17;8.18;;;2.20;92.90;;;;;;5054527;28;20212;-59
2022/01/31 07:25:54;;;;;;;11.98;6.63;;;2.30;93.20;;;;;;5054967;28;20761;-63
2022/01/31 07:28:23;;;;;;;13.27;7.45;;;2.20;93.30;;;;;;5054941;28;20206;-64
2022/01/31 07:30:51;;;;;;;10.52;7.65;;;2.30;93.40;;;;;;5053676;28;20205;-62
2022/01/31 07:33:19;;;;;;;13.20;7.00;;;2.30;93.40;;;;;;5054746;28;20253;-61
2022/01/31 07:35:49;;;;;;;9.43;6.57;;;2.20;93.50;;;;;;5054777;28;20202;-63
2022/01/31 07:38:17;;;;;;;10.05;6.50;;;2.20;93.90;;;;;;5054596;28;20209;-66
2022/01/31 07:40:44;;;;;;;8.27;6.07;;;2.20;94.00;;;;;;5054706;28;20555;-66
2022/01/31 07:43:11;;;;;;;13.95;7.18;;;2.20;94.40;;;;;;5054685;28;20259;-63
2022/01/31 07:45:39;;;;;;;6.22;5.63;;;2.30;94.40;;;;;;5053261;28;20239;-60
2022/01/31 07:48:06;;;;;;;11.85;6.20;;;2.30;94.40;;;;;;5054655;28;20219;-62
2022/01/31 07:50:36;;;;;;;7.65;5.60;;;2.40;94.20;;;;;;5054569;28;20248;-66
2022/01/31 07:53:04;;;;;;;6.07;5.32;;;2.40;93.80;;;;;;5054425;28;20206;-62
2022/01/31 07:55:31;;;;;;;7.53;4.82;;;2.40;94.00;;;;;;5054654;28;20215;-67
2022/01/31 07:57:58;;;;;;;6.78;5.20;;;2.40;94.10;;;;;;5054475;28;20300;-67
2022/01/31 08:00:26;;;;;;;5.65;4.30;;;2.50;94.30;;;;;;5053069;28;20259;-62
2022/01/31 08:02:56;;;;;;;10.07;3.88;;;2.50;94.30;;;;;;5054438;28;20198;-67
2022/01/31 08:05:23;;;;;;;7.20;3.75;;;2.50;94.40;;;;;;5054226;28;20256;-66
2022/01/31 08:07:50;;;;;;;6.07;3.42;;;2.50;94.30;;;;;;5054169;28;20212;-63
2022/01/31 08:10:17;;;;;;;4.32;3.95;;;2.50;94.20;;;;;;5054160;28;20206;-65
2022/01/31 08:12:44;;;;;;;4.45;4.10;;;2.50;94.00;;;;;;5054121;28;20229;-61
2022/01/31 08:15:20;;;;;;;4.32;4.03;;;2.50;94.30;;;;;;5052555;28;20209;-61
2022/01/31 08:17:47;;;;;;;4.00;3.70;;;2.50;94.40;;;;;;5054136;28;20299;-59
2022/01/31 08:20:15;;;;;;;4.05;3.50;;;2.50;94.40;;;;;;5054166;28;20211;-60
2022/01/31 08:22:42;;;;;;;4.13;3.70;;;2.60;94.20;;;;;;5053850;28;20201;-61
2022/01/31 08:25:14;;;;;;;4.45;3.20;;;2.60;94.20;;;;;;5053838;28;20423;-62
2022/01/31 08:27:42;;;;;;;4.10;3.70;;;2.60;93.80;;;;;;5053789;28;20546;-62
2022/01/31 08:30:14;;;;;;;6.03;5.35;;;2.60;93.80;;;;;;5052508;28;20300;-61
2022/01/31 08:32:46;;;;;;;3.95;3.00;;;2.70;94.00;;;;;;5053608;28;20240;-60
2022/01/31 08:37:58;;;;;;;3.50;3.30;;;2.70;93.70;;;;;;5049466;28;20205;-59
2022/01/31 08:40:25;;;;;;;3.08;2.88;;;2.70;93.50;;;;;;5053669;28;20241;-62
2022/01/31 08:42:53;;;;;;;3.22;2.90;;;2.70;93.50;;;;;;5053627;28;20208;-61
2022/01/31 08:45:20;;;;;;;3.63;3.42;;;2.70;93.30;;;;;;5052171;28;20233;-60
2022/01/31 08:47:46;;;;;;;2.95;2.75;;;2.80;93.30;;;;;;5053492;28;20208;-60
2022/01/31 08:50:15;;;;;;;2.97;2.78;;;2.90;93.50;;;;;;5053518;28;20202;-58
2022/01/31 08:52:41;;;;;;;3.33;3.13;;;3.00;92.70;;;;;;5053090;28;20220;-59
2022/01/31 08:55:11;;;;;;;3.60;3.40;;;3.00;92.00;;;;;;5053271;28;20674;-60
2022/01/31 08:57:39;;;;;;;3.72;3.53;;;3.00;92.10;;;;;;5053293;28;20202;-60
2022/01/31 09:00:07;;;;;;;5.25;4.05;;;3.10;91.90;;;;;;5051656;28;20216;-60
2022/01/31 09:02:38;;;;;;;4.18;3.88;;;3.00;91.10;;;;;;5053283;28;20212;-61
2022/01/31 09:05:05;;;;;;;3.35;3.20;;;3.10;91.50;;;;;;5053037;28;20323;-60
2022/01/31 09:07:33;;;;;;;3.88;3.67;;;3.10;91.50;;;;;;5053029;28;20205;-61
2022/01/31 09:10:01;;;;;;;3.47;3.28;;;3.20;91.00;;;;;;5053282;28;20681;-61
2022/01/31 09:12:31;;;;;;;5.05;4.40;;;3.20;90.90;;;;;;5053238;28;20216;-62
2022/01/31 09:14:58;;;;;;;3.97;3.67;;;3.20;89.70;;;;;;5052142;28;20263;-63
2022/01/31 09:17:25;;;;;;;5.50;5.20;;;3.20;89.30;;;;;;5053124;28;20300;-61
2022/01/31 09:19:52;;;;;;;5.50;5.20;;;3.20;89.20;;;;;;5052834;28;20209;-60
2022/01/31 09:22:19;;;;;;;5.72;5.30;;;3.20;89.60;;;;;;5053163;28;20209;-61
2022/01/31 09:24:50;;;;;;;6.30;5.97;;;3.40;89.60;;;;;;5052752;28;20308;-59
2022/01/31 09:27:17;;;;;;;5.90;5.65;;;3.40;88.60;;;;;;5052796;28;20255;-59
2022/01/31 09:29:44;;;;;;;6.93;6.50;;;3.50;88.50;;;;;;5051681;28;20365;-64
2022/01/31 09:32:12;;;;;;;7.50;7.20;;;3.50;87.20;;;;;;5052454;28;20717;-58
2022/01/31 09:34:39;;;;;;;7.43;7.03;;;3.50;86.90;;;;;;5052626;28;20275;-60
2022/01/31 09:37:08;;;;;;;7.38;7.00;;;3.60;87.10;;;;;;5052784;28;20202;-63
2022/01/31 09:39:36;;;;;;;8.65;8.25;;;3.70;86.20;;;;;;5052586;28;20229;-60
2022/01/31 09:42:09;;;;;;;9.20;8.60;;;3.70;86.20;;;;;;5052558;28;20198;-60
2022/01/31 09:44:48;;;;;;;9.00;8.50;;;3.80;86.20;;;;;;5050785;28;20205;-59
2022/01/31 09:47:23;;;;;;;8.90;8.50;;;3.70;85.70;;;;;;5052699;28;20568;-60
2022/01/31 09:49:50;;;;;;;9.05;8.55;;;3.70;85.90;;;;;;5052649;28;20201;-60
2022/01/31 09:52:17;;;;;;;8.80;8.40;;;3.70;86.10;;;;;;5052644;28;20300;-58
2022/01/31 09:54:48;;;;;;;9.60;9.00;;;3.70;86.00;;;;;;5052435;28;20209;-60
2022/01/31 09:57:17;;;;;;;9.40;9.00;;;3.80;85.30;;;;;;5052493;28;20263;-59
2022/01/31 09:59:44;;;;;;;10.27;9.77;;;3.80;85.50;;;;;;5051134;28;20693;-59
2022/01/31 10:02:14;;;;;;;10.10;9.60;;;3.80;85.10;;;;;;5052404;28;20236;-58
2022/01/31 10:04:44;;;;;;;9.85;9.45;;;3.90;84.40;;;;;;5052299;28;20300;-59
2022/01/31 10:07:13;;;;;;;9.10;8.60;;;3.90;83.80;;;;;;5052318;28;20283;-61
2022/01/31 10:09:43;;;;;;;10.00;9.40;;;4.10;84.50;;;;;;5052135;28;20209;-60
2022/01/31 10:12:20;;;;;;;9.40;8.68;;;4.00;82.80;;;;;;5052410;28;20241;-58
2022/01/31 10:17:36;;;;;;;9.25;8.85;;;4.20;82.00;;;;;;5052424;28;20206;-60
2022/01/31 10:20:06;;;;;;;8.50;8.10;;;4.10;81.80;;;;;;5052034;28;20201;-58
2022/01/31 10:22:34;;;;;;;8.90;8.30;;;4.10;82.50;;;;;;5051904;28;20208;-59
2022/01/31 10:25:04;;;;;;;8.98;8.40;;;4.20;81.80;;;;;;5052005;28;20217;-60
2022/01/31 10:27:34;;;;;;;8.77;8.38;;;4.30;81.40;;;;;;5052217;28;20198;-59
2022/01/31 10:30:11;;;;;;;9.30;8.90;;;4.40;81.80;;;;;;5050975;28;20205;-58
2022/01/31 10:32:41;;;;;;;11.13;10.35;;;4.60;80.50;;;;;;5052231;28;20197;-59
2022/01/31 10:35:10;;;;;;;7.50;6.90;;;4.60;79.90;;;;;;5052198;28;20656;-59
2022/01/31 10:37:40;;;;;;;7.47;7.07;;;4.50;79.30;;;;;;5052107;28;20725;-58
2022/01/31 10:46:05;;;;;;;7.70;7.20;;;4.60;78.10;;;;;;5028539;28;20226;-61
2022/01/31 10:54:14;;;;;;;7.60;7.30;;;4.70;77.60;;;;;;5051863;28;20193;-58
2022/01/31 10:56:43;;;;;;;7.82;7.35;;;5.00;77.20;;;;;;5054274;28;20206;-61
2022/01/31 10:59:12;;;;;;;8.57;8.00;;;4.90;76.70;;;;;;5053934;28;20241;-59
2022/01/31 11:01:43;;;;;;;8.48;8.07;;;5.10;76.80;;;;;;5055460;28;20233;-61
2022/01/31 11:04:12;;;;;;;7.90;7.25;;;5.10;76.70;;;;;;5055332;28;20650;-62
2022/01/31 11:06:41;;;;;;;8.60;8.10;;;5.00;75.70;;;;;;5055326;28;20239;-60
2022/01/31 11:09:10;;;;;;;9.18;8.43;;;4.90;75.50;;;;;;5055118;28;20678;-59
2022/01/31 11:11:39;;;;;;;8.20;7.80;;;4.90;76.00;;;;;;5055323;28;20322;-60
2022/01/31 11:14:07;;;;;;;7.90;7.50;;;4.80;75.90;;;;;;5054251;28;20251;-59
2022/01/31 11:16:35;;;;;;;7.13;6.60;;;4.70;76.50;;;;;;5055009;28;20284;-60
2022/01/31 11:19:08;;;;;;;6.05;5.75;;;4.60;76.80;;;;;;5055242;28;20304;-59
2022/01/31 11:21:37;;;;;;;7.18;6.70;;;4.70;77.50;;;;;;5055103;28;20201;-58
2022/01/31 11:24:16;;;;;;;7.32;6.78;;;4.90;77.50;;;;;;5054933;28;20686;-57
2022/01/31 11:26:43;;;;;;;7.65;7.10;;;5.00;76.40;;;;;;5054909;28;20711;-60
2022/01/31 11:29:11;;;;;;;7.60;7.10;;;5.00;76.50;;;;;;5053401;28;20296;-58
2022/01/31 11:31:40;;;;;;;7.47;7.10;;;5.00;76.30;;;;;;5054880;28;20247;-58
2022/01/31 11:34:09;;;;;;;7.25;6.88;;;5.10;76.80;;;;;;5054997;28;20205;-60
2022/01/31 11:36:39;;;;;;;6.00;5.60;;;4.90;76.30;;;;;;5055299;28;20225;-57
2022/01/31 11:39:08;;;;;;;7.22;6.88;;;4.90;77.10;;;;;;5054656;28;20197;-60
2022/01/31 11:41:38;;;;;;;6.85;6.50;;;4.70;77.80;;;;;;5054756;28;20211;-57
2022/01/31 11:44:11;;;;;;;7.35;6.68;;;4.60;78.00;;;;;;5053758;28;20217;-58
2022/01/31 11:46:41;;;;;;;7.15;6.68;;;4.60;78.30;;;;;;5054795;28;20235;-56
2022/01/31 11:49:14;;;;;;;6.35;6.05;;;4.50;78.10;;;;;;5054623;28;20205;-58
2022/01/31 11:52:04;;;;;;;5.40;5.00;;;4.40;80.40;;;;;;5054628;28;20201;-56
2022/01/31 11:54:31;;;;;;;5.68;5.47;;;4.30;79.80;;;;;;5054413;28;20202;-58
2022/01/31 11:56:58;;;;;;;5.70;5.40;;;4.30;81.00;;;;;;5054380;28;20209;-57
2022/01/31 11:59:26;;;;;;;6.60;6.10;;;4.30;80.50;;;;;;5053129;28;21032;-57
2022/01/31 12:01:54;;;;;;;5.63;5.22;;;4.20;80.50;;;;;;5054354;28;20666;-57
2022/01/31 12:04:32;;;;;;;5.93;5.53;;;4.30;81.40;;;;;;5054451;28;20205;-60
2022/01/31 12:06:59;;;;;;;4.63;4.35;;;4.30;80.10;;;;;;5053774;28;20232;-59
2022/01/31 12:09:28;;;;;;;6.53;6.15;;;4.20;79.80;;;;;;5054028;28;20197;-59
2022/01/31 12:11:59;;;;;;;5.45;5.10;;;4.00;80.70;;;;;;5054172;28;20209;-57
2022/01/31 12:14:31;;;;;;;5.70;5.30;;;4.00;82.20;;;;;;5052819;28;20855;-56
2022/01/31 12:17:17;;;;;;;5.30;5.00;;;4.00;81.20;;;;;;5053998;28;20295;-58
2022/01/31 12:20:03;;;;;;;5.18;4.97;;;4.00;81.70;;;;;;5054035;28;20646;-56
2022/01/31 12:22:52;;;;;;;5.30;4.80;;;4.00;81.80;;;;;;5054094;28;20204;-59
2022/01/31 12:25:28;;;;;;;4.85;4.55;;;3.90;82.60;;;;;;5053775;28;20206;-56
2022/01/31 12:27:58;;;;;;;5.18;4.88;;;4.00;83.30;;;;;;5053760;28;20263;-59
2022/01/31 12:30:34;;;;;;;6.10;5.60;;;4.10;81.80;;;;;;5052546;28;20240;-58
2022/01/31 12:33:01;;;;;;;5.72;5.32;;;4.10;81.10;;;;;;5053735;28;20212;-58
2022/01/31 12:35:37;;;;;;;5.50;5.20;;;4.00;81.50;;;;;;5053672;28;20244;-57
2022/01/31 12:38:07;;;;;;;5.10;4.80;;;3.90;82.20;;;;;;5053542;28;20562;-57
2022/01/31 12:40:40;;;;;;;5.75;4.65;;;3.90;82.40;;;;;;5053480;28;20201;-57
2022/01/31 12:43:24;;;;;;;4.82;4.53;;;3.90;82.30;;;;;;5053639;28;20677;-58
2022/01/31 12:46:17;;;;;;;6.60;4.75;;;3.80;82.30;;;;;;5052227;28;20235;-60
2022/01/31 12:49:00;;;;;;;6.55;4.85;;;3.80;83.60;;;;;;5053554;28;20206;-59
2022/01/31 12:51:28;;;;;;;6.05;4.68;;;3.80;83.50;;;;;;5051726;28;20216;-59
2022/01/31 12:53:55;;;;;;;5.38;5.00;;;3.70;83.60;;;;;;5053233;28;20208;-60
2022/01/31 12:56:29;;;;;;;4.32;4.13;;;3.60;83.90;;;;;;5053372;28;20205;-57
2022/01/31 12:59:00;;;;;;;5.28;4.93;;;3.60;84.90;;;;;;5053151;28;20203;-59
2022/01/31 13:01:29;;;;;;;4.20;4.00;;;3.40;84.80;;;;;;5052317;28;20248;-59
2022/01/31 13:03:58;;;;;;;5.75;4.30;;;3.40;85.70;;;;;;5053509;28;20201;-58
2022/01/31 13:06:34;;;;;;;5.10;4.80;;;3.50;85.40;;;;;;5052715;28;20225;-59
2022/01/31 13:09:05;;;;;;;4.75;4.45;;;3.40;85.00;;;;;;5053089;28;20552;-58
2022/01/31 13:11:32;;;;;;;4.63;4.43;;;3.50;85.10;;;;;;5053089;28;20352;-60
2022/01/31 13:14:15;;;;;;;6.20;5.75;;;3.40;84.80;;;;;;5053030;28;20235;-59
2022/01/31 13:16:51;;;;;;;4.07;3.78;;;3.60;85.80;;;;;;5053015;28;20201;-57
2022/01/31 13:19:21;;;;;;;4.05;3.75;;;3.70;85.40;;;;;;5052027;28;20219;-57